Flight Track Log - Related Links

Times and Time Zones

All times are in EDT time to prevent confusion due to time zone crossing. See the SWA2359 flight status page for this flight to view local times or setup timezone preferences in your user account.

Time Position Orientation Groundspeed Altitude Reporting Facility
EDT Latitude Longitude Course Direction KTS MPH feet Rate Location/Type
Sat 10:40:01 AM 32.1006 -110.9206 132° Southeast 170 196 3,300  Level Albuquerque Center
Sat 10:40:31 AM 32.0831 -110.8975 132° Southeast 181 208 4,200 2,053 Climbing Albuquerque Center
Sat 10:42:33 AM 32.0267 -110.7417 113° Southeast 294 338 8,500 2,250 Climbing Albuquerque Center
Sat 10:43:11 AM 32.0222 -110.6944 96° East 287 330 10,200 2,667 Climbing Albuquerque Center
Sat 10:43:27 AM 32.0147 -110.6494 101° East 309 356 10,900 2,459 Climbing Albuquerque Center
Sat 10:44:12 AM 32.0061 -110.5692 97° East 329 379 12,700 2,748 Climbing Albuquerque Center
Sat 10:45:14 AM 31.9906 -110.4456 98° East 371 427 15,800 2,732 Climbing Albuquerque Center
Sat 10:46:15 AM 31.9761 -110.3208 98° East 385 443 18,300 2,341 Climbing Albuquerque Center
Sat 10:47:17 AM 31.9811 -110.1858 87° East 427 491 20,600 2,226 Climbing Albuquerque Center
Sat 10:48:19 AM 32.0603 -110.0833 48° Northeast 429 494 22,900 2,293 Climbing Albuquerque Center
Sat 10:49:20 AM 32.1614 -109.9581 46° Northeast 440 506 25,300 2,098 Climbing Albuquerque Center
Sat 10:50:22 AM 32.2464 -109.8478 48° Northeast 453 521 27,200 1,645 Climbing Albuquerque Center
Sat 10:51:24 AM 32.3336 -109.7361 47° Northeast 460 529 28,700 1,415 Climbing Albuquerque Center
Sat 10:52:25 AM 32.4239 -109.6217 47° Northeast 470 541 30,100 1,561 Climbing Albuquerque Center
Sat 10:53:27 AM 32.5139 -109.4997 49° Northeast 485 558 31,900 1,415 Climbing Albuquerque Center
Sat 10:54:28 AM 32.6217 -109.3586 48° Northeast 487 560 33,000 878 Climbing Albuquerque Center
Sat 10:55:30 AM 32.7108 -109.2417 48° Northeast 483 556 33,700 484 Climbing Albuquerque Center
Sat 10:56:32 AM 32.7997 -109.1253 48° Northeast 482 555 34,000 732 Climbing Albuquerque Center
Sat 10:57:33 AM 32.8950 -109.0008 48° Northeast 486 559 35,200 1,268 Climbing Albuquerque Center
Sat 10:58:35 AM 32.9839 -108.8814 48° Northeast 485 558 36,600 871 Climbing Albuquerque Center
Sat 10:59:37 AM 33.0778 -108.7556 48° Northeast 484 557 37,000 194 Climbing Albuquerque Center
Sat 11:00:39 AM 33.1667 -108.6367 48° Northeast 485 558 37,000  Level Albuquerque Center
Sat 11:01:40 AM 33.2553 -108.5183 48° Northeast 483 556 37,000  Level Albuquerque Center
Sat 11:02:42 AM 33.3442 -108.3981 48° Northeast 485 558 37,000  Level Albuquerque Center
Sat 11:03:44 AM 33.4519 -108.2531 48° Northeast 488 562 37,000  Level Albuquerque Center
Sat 11:04:45 AM 33.5419 -108.1308 49° Northeast 489 563 37,000  Level Albuquerque Center
Sat 11:05:47 AM 33.6328 -108.0067 49° Northeast 492 566 37,000  Level Albuquerque Center
Sat 11:06:49 AM 33.7244 -107.8825 48° Northeast 495 570 37,000  Level Albuquerque Center
Sat 11:07:51 AM 33.8164 -107.7561 49° Northeast 498 573 37,000  Level Albuquerque Center
Sat 11:08:52 AM 33.9067 -107.6294 49° Northeast 499 574 37,000  Level Albuquerque Center
Sat 11:09:54 AM 33.9981 -107.5022 49° Northeast 500 575 37,000  Level Albuquerque Center
Sat 11:10:56 AM 34.0722 -107.3606 58° Northeast 501 577 37,000  Level Albuquerque Center
Sat 11:11:58 AM 34.1597 -107.1869 59° Northeast 505 581 37,000  Level Albuquerque Center
Sat 11:13:00 AM 34.2325 -107.0433 58° Northeast 502 578 37,000  Level Albuquerque Center
Sat 11:14:02 AM 34.3094 -106.8975 57° Northeast 497 572 37,000  Level Albuquerque Center
Sat 11:15:03 AM 34.3814 -106.7478 60° Northeast 495 570 37,000  Level Albuquerque Center
Sat 11:16:05 AM 34.4528 -106.6067 58° Northeast 496 571 37,000  Level Albuquerque Center
Sat 11:17:07 AM 34.5225 -106.4653 59° Northeast 494 568 37,000  Level Albuquerque Center
Sat 11:18:09 AM 34.5917 -106.3261 59° Northeast 488 562 37,000  Level Albuquerque Center
Sat 11:19:11 AM 34.6650 -106.1739 60° Northeast 488 562 37,000  Level Albuquerque Center
Sat 11:20:12 AM 34.7386 -106.0286 58° Northeast 496 571 37,000  Level Albuquerque Center
Sat 11:21:14 AM 34.8089 -105.8839 59° Northeast 494 568 37,000  Level Albuquerque Center
Sat 11:22:16 AM 34.8908 -105.7147 59° Northeast 494 568 37,000  Level Albuquerque Center
Sat 11:23:18 AM 34.9608 -105.5714 59° Northeast 490 564 37,000  Level Albuquerque Center
Sat 11:24:20 AM 35.0306 -105.4278 59° Northeast 488 562 37,000  Level Albuquerque Center
Sat 11:25:22 AM 35.1000 -105.2828 60° Northeast 489 563 37,000  Level Albuquerque Center
Sat 11:26:24 AM 35.1697 -105.1392 59° Northeast 488 562 37,000  Level Albuquerque Center
Sat 11:27:25 AM 35.2383 -104.9939 60° Northeast 488 562 37,000  Level Albuquerque Center
Sat 11:28:27 AM 35.3075 -104.8486 60° Northeast 488 562 37,000  Level Albuquerque Center
Sat 11:29:29 AM 35.3772 -104.7019 60° Northeast 490 564 37,000  Level Albuquerque Center
Sat 11:30:31 AM 35.4461 -104.5544 60° Northeast 490 564 37,000  Level Albuquerque Center
Sat 11:31:33 AM 35.5153 -104.4078 60° Northeast 489 563 37,000  Level Albuquerque Center
Sat 11:32:34 AM 35.5839 -104.2622 60° Northeast 485 558 37,000  Level Albuquerque Center
Sat 11:33:36 AM 35.6628 -104.0931 60° Northeast 482 555 37,000  Level Albuquerque Center
Sat 11:34:38 AM 35.7289 -103.9483 61° Northeast 480 552 37,000  Level Albuquerque Center
Sat 11:35:40 AM 35.7956 -103.8047 60° Northeast 479 551 37,000  Level Albuquerque Center
Sat 11:36:41 AM 35.8622 -103.6581 61° Northeast 482 555 37,000  Level Albuquerque Center
Sat 11:37:43 AM 35.9286 -103.5144 60° Northeast 480 552 37,000  Level Albuquerque Center
Sat 11:38:45 AM 35.9939 -103.3703 61° Northeast 478 550 37,000  Level Albuquerque Center
Sat 11:39:47 AM 36.0581 -103.2258 61° Northeast 476 548 37,000  Level Albuquerque Center
Sat 11:40:48 AM 36.1231 -103.0817 61° Northeast 475 547 37,000  Level Albuquerque Center
Sat 11:41:50 AM 36.1886 -102.9378 61° Northeast 476 548 37,000  Level Albuquerque Center
Sat 11:42:52 AM 36.2569 -102.7842 61° Northeast 475 547 37,000 98 Level Albuquerque Center
Sat 11:43:53 AM 36.3219 -102.6403 61° Northeast 476 548 37,200 634 Climbing Albuquerque Center
Sat 11:44:55 AM 36.3861 -102.4928 62° Northeast 483 556 38,300 878 Climbing Albuquerque Center
Sat 11:45:56 AM 36.4511 -102.3453 61° Northeast 485 558 39,000 341 Climbing Albuquerque Center
Sat 11:46:58 AM 36.5156 -102.1972 62° Northeast 486 559 39,000  Level Albuquerque Center
Sat 11:48:00 AM 36.5931 -102.0208 61° Northeast 484 557 39,000  Level Albuquerque Center
Sat 11:49:01 AM 36.6564 -101.8756 61° Northeast 484 557 39,000  Level Albuquerque Center
Sat 11:50:03 AM 36.7167 -101.7361 62° Northeast 481 554 39,000  Level Albuquerque Center
Sat 11:51:04 AM 36.7869 -101.5747 61° Northeast 476 548 39,000  Level Albuquerque Center
Sat 11:52:06 AM 36.8461 -101.4333 62° Northeast 478 550 39,000  Level Albuquerque Center
Sat 11:52:44 AM 36.8864 -101.3408 61° Northeast 478 550 39,000  Level Kansas City Center
Sat 11:53:46 AM 36.9550 -101.1789 62° Northeast 475 547 39,000  Level Kansas City Center
Sat 11:54:48 AM 37.0142 -101.0389 62° Northeast 477 549 39,000  Level Kansas City Center
Sat 11:55:49 AM 37.0731 -100.8983 62° Northeast 478 550 39,000  Level Kansas City Center
Sat 11:56:51 AM 37.1408 -100.7367 62° Northeast 475 547 39,000  Level Kansas City Center
Sat 11:57:53 AM 37.1989 -100.5978 62° Northeast 472 543 39,000  Level Kansas City Center
Sat 11:58:55 AM 37.2661 -100.4364 62° Northeast 471 542 39,000  Level Kansas City Center
Sat 11:59:56 AM 37.3231 -100.2981 63° Northeast 470 541 39,000  Level Kansas City Center
Sat 12:00:58 PM 37.3897 -100.1369 62° Northeast 468 539 39,000  Level Kansas City Center
Sat 12:02:00 PM 37.4467 -99.9983 63° Northeast 468 539 39,000  Level Kansas City Center
Sat 12:03:01 PM 37.5128 -99.8358 63° Northeast 469 540 39,000  Level Kansas City Center
Sat 12:04:03 PM 37.5708 -99.6936 63° Northeast 475 547 39,000  Level Kansas City Center
Sat 12:05:05 PM 37.6381 -99.5322 62° Northeast 469 540 39,000  Level Kansas City Center
Sat 12:06:07 PM 37.6944 -99.3914 63° Northeast 466 536 39,000  Level Kansas City Center
Sat 12:07:08 PM 37.7519 -99.2444 64° Northeast 466 536 39,000  Level Kansas City Center
Sat 12:08:10 PM 37.8094 -99.0981 64° Northeast 465 535 39,000  Level Kansas City Center
Sat 12:09:12 PM 37.8681 -98.9500 63° Northeast 469 540 39,000  Level Kansas City Center
Sat 12:10:13 PM 37.9264 -98.8019 63° Northeast 469 540 39,000  Level Kansas City Center
Sat 12:11:15 PM 37.9853 -98.6522 63° Northeast 471 542 39,000  Level Kansas City Center
Sat 12:12:17 PM 38.0575 -98.4733 63° Northeast 475 547 39,000  Level Kansas City Center
Sat 12:13:19 PM 38.1158 -98.3222 64° Northeast 475 547 39,000  Level Kansas City Center
Sat 12:14:20 PM 38.1742 -98.1703 64° Northeast 474 545 39,000  Level Kansas City Center
Sat 12:15:22 PM 38.2331 -98.0203 63° Northeast 470 541 39,000  Level Kansas City Center
Sat 12:16:24 PM 38.2889 -97.8700 65° Northeast 466 536 39,000  Level Kansas City Center
Sat 12:17:25 PM 38.3458 -97.7222 64° Northeast 461 531 39,000  Level Kansas City Center
Sat 12:18:27 PM 38.4017 -97.5742 64° Northeast 461 531 39,000  Level Kansas City Center
Sat 12:19:29 PM 38.4575 -97.4269 64° Northeast 459 528 39,000  Level Kansas City Center
Sat 12:20:31 PM 38.5128 -97.2797 64° Northeast 460 529 39,000  Level Kansas City Center
Sat 12:21:32 PM 38.5675 -97.1325 65° Northeast 458 527 39,000  Level Kansas City Center
Sat 12:22:34 PM 38.6333 -96.9550 65° Northeast 460 529 39,000  Level Kansas City Center
Sat 12:23:36 PM 38.6897 -96.8022 65° Northeast 459 528 39,000  Level Kansas City Center
Sat 12:24:37 PM 38.7417 -96.6600 65° Northeast 459 528 39,000  Level Kansas City Center
Sat 12:25:39 PM 38.7983 -96.5133 64° Northeast 460 529 39,000  Level Kansas City Center
Sat 12:26:41 PM 38.8544 -96.3556 65° Northeast 457 526 39,000  Level Kansas City Center
Sat 12:27:42 PM 38.9053 -96.2122 65° Northeast 459 528 39,000  Level Kansas City Center
Sat 12:28:44 PM 38.9639 -96.0458 66° East 458 527 39,000  Level Kansas City Center
Sat 12:29:46 PM 39.0156 -95.9031 65° Northeast 461 531 39,000  Level Kansas City Center
Sat 12:30:47 PM 39.0669 -95.7608 65° Northeast 460 529 39,000  Level Kansas City Center
Sat 12:31:49 PM 39.1261 -95.5944 65° Northeast 458 527 39,000  Level Kansas City Center
Sat 12:32:50 PM 39.1811 -95.4369 66° East 456 525 39,000  Level Kansas City Center
Sat 12:33:52 PM 39.2331 -95.2878 66° East 456 525 39,000  Level Kansas City Center
Sat 12:34:54 PM 39.2886 -95.1303 65° Northeast 450 518 39,000  Level Kansas City Center
Sat 12:35:55 PM 39.3369 -94.9908 66° East 455 524 39,000  Level Kansas City Center
Sat 12:36:57 PM 39.3950 -94.8256 66° East 453 521 39,000  Level Kansas City Center
Sat 12:37:59 PM 39.4450 -94.6811 66° East 460 529 39,000  Level Kansas City Center
Sat 12:39:00 PM 39.4939 -94.5375 66° East 458 527 39,000  Level Kansas City Center
Sat 12:40:02 PM 39.5497 -94.3706 67° East 452 520 39,000  Level Kansas City Center
Sat 12:41:03 PM 39.5981 -94.2283 66° East 451 519 39,000  Level Kansas City Center
Sat 12:42:05 PM 39.6547 -94.0619 66° East 451 519 39,000  Level Kansas City Center
Sat 12:43:07 PM 39.7019 -93.9197 67° East 448 516 39,000  Level Kansas City Center
Sat 12:44:08 PM 39.7492 -93.7767 67° East 448 516 39,000  Level Kansas City Center
Sat 12:45:10 PM 39.7997 -93.6208 67° East 451 519 39,000  Level Kansas City Center
Sat 12:46:12 PM 39.8494 -93.4747 66° East 448 516 39,000  Level Kansas City Center
Sat 12:47:13 PM 39.9081 -93.2961 67° East 450 518 39,000  Level Kansas City Center
Sat 12:48:15 PM 39.9572 -93.1492 66° East 448 516 39,000  Level Kansas City Center
Sat 12:49:17 PM 40.0033 -93.0000 68° East 448 516 39,000  Level Kansas City Center
Sat 12:50:18 PM 40.0511 -92.8522 67° East 447 514 39,000  Level Kansas City Center
Sat 12:51:20 PM 40.1050 -92.6794 68° East 447 514 39,000  Level Kansas City Center
Sat 12:52:22 PM 40.1478 -92.5361 69° East 444 511 39,000  Level Kansas City Center
Sat 12:53:23 PM 40.1778 -92.3853 75° East 443 510 39,000  Level Kansas City Center
Sat 12:54:25 PM 40.2108 -92.2239 75° East 443 510 39,000  Level Kansas City Center
Sat 12:55:27 PM 40.2417 -92.0717 75° East 439 505 39,000  Level Kansas City Center
Sat 12:56:29 PM 40.2719 -91.9194 75° East 438 504 39,000  Level Kansas City Center
Sat 12:57:30 PM 40.3089 -91.7386 75° East 434 499 39,000  Level Kansas City Center
Sat 12:58:32 PM 40.3383 -91.5858 76° East 436 502 39,000  Level Kansas City Center
Sat 12:59:34 PM 40.3686 -91.4339 75° East 435 501 39,000 -231 Level Kansas City Center
Sat 12:59:50 PM 40.3761 -91.4042 72° East 434 499 38,700 -2,462 Descending Chicago Center
Sat 01:00:52 PM 40.4119 -91.2256 75° East 430 495 35,800 -2,732 Descending Chicago Center
Sat 01:01:53 PM 40.4411 -91.0728 76° East 430 495 33,100 -1,366 Descending Chicago Center
Sat 01:02:55 PM 40.4719 -90.9106 76° East 453 521 33,000 -48 Descending Chicago Center
Sat 01:03:57 PM 40.5028 -90.7467 76° East 461 531 33,000 -488 Level Chicago Center
Sat 01:04:58 PM 40.5333 -90.5850 76° East 458 527 32,000 -976 Descending Chicago Center
Sat 01:06:00 PM 40.5647 -90.4219 76° East 460 529 31,000 -1,016 Descending Chicago Center
Sat 01:07:02 PM 40.5986 -90.2344 77° East 450 518 29,900 -1,073 Descending Chicago Center
Sat 01:08:03 PM 40.6275 -90.0781 76° East 443 510 28,800 -1,659 Descending Chicago Center
Sat 01:09:05 PM 40.6550 -89.9281 76° East 428 493 26,500 -2,661 Descending Chicago Center
Sat 01:10:07 PM 40.6825 -89.7739 77° East 436 502 23,300 -2,683 Descending Chicago Center
Sat 01:11:08 PM 40.7450 -89.6431 58° Northeast 433 498 21,000 -2,439 Descending Chicago Center
Sat 01:12:10 PM 40.8078 -89.4978 60° Northeast 403 464 18,300 -2,419 Descending Chicago Center
Sat 01:13:12 PM 40.8606 -89.3747 60° Northeast 389 448 16,000 -1,597 Descending Chicago Center
Sat 01:14:14 PM 40.9128 -89.2550 60° Northeast 380 437 15,000 -488 Descending Chicago Center
Sat 01:15:15 PM 40.9814 -89.1553 48° Northeast 371 427 15,000  Level Chicago Center
Sat 01:16:17 PM 41.0531 -89.0500 48° Northeast 371 427 15,000 -387 Level Chicago Center
Sat 01:17:19 PM 41.1225 -88.9489 48° Northeast 373 429 14,200 -1,403 Descending Chicago Center
Sat 01:18:21 PM 41.1889 -88.8514 48° Northeast 362 417 12,100 -1,902 Descending Chicago Center
Sat 01:19:22 PM 41.2642 -88.7378 49° Northeast 343 395 10,300 -1,268 Descending Chicago Center
Sat 01:20:24 PM 41.3189 -88.6569 48° Northeast 299 344 9,500 -1,065 Descending Chicago Center
Sat 01:21:26 PM 41.3714 -88.5783 48° Northeast 289 333 8,100 -1,452 Descending Chicago Center
Sat 01:22:28 PM 41.4242 -88.5003 48° Northeast 286 329 6,500 -1,016 Descending Chicago Center
Sat 01:23:30 PM 41.4589 -88.4133 62° Northeast 271 312 6,000 -581 Descending Chicago Center
Sat 01:24:32 PM 41.4875 -88.3228 67° East 267 307 5,300 -976 Descending Chicago Center
Sat 01:25:33 PM 41.5189 -88.2281 66° East 276 318 4,000 -634 Descending Chicago Center
Sat 01:26:35 PM 41.5522 -88.1392 63° Northeast 271 312 4,000  Level Chicago Center
Sat 01:27:37 PM 41.5872 -88.0414 64° Northeast 250 288 4,000  Level Chicago Center
Sat 01:28:39 PM 41.6139 -87.9664 65° Northeast 233 268 4,000 -97 Level Chicago Center
Sat 01:29:41 PM 41.6619 -87.9089 42° Northeast 231 266 3,800 -297 Descending Chicago Center
Sat 01:30:20 PM 41.6833 -87.8667 56° Northeast 207 238 3,500 -645 Descending Chicago TRACON
Sat 01:31:14 PM 41.7333 -87.8333 26° Northeast 191 220 2,800 -716 Descending Chicago TRACON
Sat 01:32:09 PM 41.7833 -87.8333 360° North 170 196 2,200 -365 Descending Chicago TRACON
Sat 01:33:09 PM 41.8167 -87.8167 20° North 158 182 2,100 -550 Descending Chicago TRACON
Sat 01:34:09 PM 41.8000 -87.7833 124° Southeast 132 152 1,100 -1,000 Descending Chicago TRACON
Sat 01:36:00 PM 41.7833 -87.7500 51° Northeast  Level FlightAware Approximate

Login

Don't have an account? Register now (free) for customized features, flight alerts, and more!